Allentown, Georgia
Current Conditions -  °F | °C
As of 11:15 AM on Saturday 22 Nov 2014 (Local Time) from KDBN Reporting Station
Overcast Overcast  
Wind Chill: 55°   Ceiling: 7000
Heat Index: 55°   Visibility: 10mi
Dew Point: 28°   Wind: 9mph
Humidity: 36%   Direction: 80°E
Pressure: 30.47"   Gusts: NA
Location:  32.59°N, 83.23°W
Report Text: KDBN 221615Z AUTO 08008KT 10SM SCT050 OVC070 13/M02 A3047 RMK AO2
Loading
Personal Weather Stations






























Interactive Weather Map New forecast layout! Learn more

10-Day Weather Forecast

Advertisements
Track Severe Weather on mobile